sensor_id;sensor_type;location;lat;lon;timestamp;pressure;altitude;pressure_sealevel;temperature;humidity
55424;BME280;41294;42.666;23.350;2022-08-20T00:00:47;94629.25;;;25.85;57.76
55424;BME280;41294;42.666;23.350;2022-08-20T00:03:16;94627.84;;;25.84;58.04
55424;BME280;41294;42.666;23.350;2022-08-20T00:05:47;94635.00;;;25.81;57.74
55424;BME280;41294;42.666;23.350;2022-08-20T00:08:14;94628.91;;;25.81;58.10
55424;BME280;41294;42.666;23.350;2022-08-20T00:10:42;94629.63;;;25.81;57.81
55424;BME280;41294;42.666;23.350;2022-08-20T00:13:10;94624.97;;;25.82;58.04
55424;BME280;41294;42.666;23.350;2022-08-20T00:15:38;94629.09;;;25.76;58.07
55424;BME280;41294;42.666;23.350;2022-08-20T00:18:05;94626.41;;;25.76;58.14
55424;BME280;41294;42.666;23.350;2022-08-20T00:20:34;94628.00;;;25.71;58.59
55424;BME280;41294;42.666;23.350;2022-08-20T00:23:00;94628.94;;;25.66;58.45
55424;BME280;41294;42.666;23.350;2022-08-20T00:25:27;94632.34;;;25.59;59.12
55424;BME280;41294;42.666;23.350;2022-08-20T00:27:54;94630.91;;;25.58;59.01
55424;BME280;41294;42.666;23.350;2022-08-20T00:30:20;94631.63;;;25.66;58.90
55424;BME280;41294;42.666;23.350;2022-08-20T00:32:59;94620.31;;;25.53;59.17
55424;BME280;41294;42.666;23.350;2022-08-20T00:35:28;94619.06;;;25.46;59.53
55424;BME280;41294;42.666;23.350;2022-08-20T00:37:54;94626.59;;;25.55;59.01
55424;BME280;41294;42.666;23.350;2022-08-20T00:40:23;94622.81;;;25.58;59.37
55424;BME280;41294;42.666;23.350;2022-08-20T00:42:52;94623.16;;;25.62;58.96
55424;BME280;41294;42.666;23.350;2022-08-20T00:45:20;94622.78;;;25.73;58.77
55424;BME280;41294;42.666;23.350;2022-08-20T00:47:45;94626.75;;;25.72;58.89
55424;BME280;41294;42.666;23.350;2022-08-20T00:50:18;94621.03;;;25.53;59.59
55424;BME280;41294;42.666;23.350;2022-08-20T00:52:47;94618.00;;;25.34;59.92
55424;BME280;41294;42.666;23.350;2022-08-20T00:55:16;94620.69;;;25.34;60.02
55424;BME280;41294;42.666;23.350;2022-08-20T00:57:46;94622.66;;;25.19;60.58
55424;BME280;41294;42.666;23.350;2022-08-20T01:00:16;94616.41;;;25.31;60.11
55424;BME280;41294;42.666;23.350;2022-08-20T01:02:42;94613.69;;;25.24;60.68
55424;BME280;41294;42.666;23.350;2022-08-20T01:05:09;94606.72;;;25.13;61.06
55424;BME280;41294;42.666;23.350;2022-08-20T01:07:35;94611.31;;;25.05;61.14
55424;BME280;41294;42.666;23.350;2022-08-20T01:10:17;94604.53;;;25.12;61.32
55424;BME280;41294;42.666;23.350;2022-08-20T01:12:45;94602.38;;;25.10;61.07
55424;BME280;41294;42.666;23.350;2022-08-20T01:15:13;94599.13;;;24.97;61.56
55424;BME280;41294;42.666;23.350;2022-08-20T01:17:43;94598.41;;;24.96;61.58
55424;BME280;41294;42.666;23.350;2022-08-20T01:20:30;94589.44;;;24.87;61.87
55424;BME280;41294;42.666;23.350;2022-08-20T01:25:52;94588.88;;;24.73;62.17
55424;BME280;41294;42.666;23.350;2022-08-20T01:28:23;94593.38;;;24.86;61.78
55424;BME280;41294;42.666;23.350;2022-08-20T01:30:50;94602.72;;;24.85;61.72
55424;BME280;41294;42.666;23.350;2022-08-20T01:33:17;94599.13;;;24.75;62.33
55424;BME280;41294;42.666;23.350;2022-08-20T01:35:43;94591.94;;;24.70;62.54
55424;BME280;41294;42.666;23.350;2022-08-20T01:38:09;94591.03;;;24.75;62.48
55424;BME280;41294;42.666;23.350;2022-08-20T01:41:06;94594.81;;;24.79;62.46
55424;BME280;41294;42.666;23.350;2022-08-20T01:43:33;94590.13;;;24.65;62.70
55424;BME280;41294;42.666;23.350;2022-08-20T01:45:59;94596.25;;;24.65;63.02
55424;BME280;41294;42.666;23.350;2022-08-20T01:48:25;94587.59;;;24.52;63.17
55424;BME280;41294;42.666;23.350;2022-08-20T01:51:00;94583.66;;;24.68;62.94
55424;BME280;41294;42.666;23.350;2022-08-20T01:53:35;94575.75;;;24.62;63.12
55424;BME280;41294;42.666;23.350;2022-08-20T01:56:05;94571.81;;;24.56;63.48
55424;BME280;41294;42.666;23.350;2022-08-20T01:58:33;94574.63;;;24.43;63.80
55424;BME280;41294;42.666;23.350;2022-08-20T02:00:58;94574.63;;;24.43;63.69
55424;BME280;41294;42.666;23.350;2022-08-20T02:03:24;94574.81;;;24.37;63.79
55424;BME280;41294;42.666;23.350;2022-08-20T02:05:53;94573.97;;;24.50;63.68
55424;BME280;41294;42.666;23.350;2022-08-20T02:08:20;94577.34;;;24.50;63.21
55424;BME280;41294;42.666;23.350;2022-08-20T02:10:46;94571.81;;;24.56;63.44
55424;BME280;41294;42.666;23.350;2022-08-20T02:13:15;94572.88;;;24.53;63.54
55424;BME280;41294;42.666;23.350;2022-08-20T02:15:41;94571.06;;;24.48;63.91
55424;BME280;41294;42.666;23.350;2022-08-20T02:18:10;94578.19;;;24.38;64.22
55424;BME280;41294;42.666;23.350;2022-08-20T02:20:38;94581.97;;;24.27;64.67
55424;BME280;41294;42.666;23.350;2022-08-20T02:23:04;94569.94;;;24.28;65.05
55424;BME280;41294;42.666;23.350;2022-08-20T02:25:33;94585.34;;;24.28;64.70
55424;BME280;41294;42.666;23.350;2022-08-20T02:28:02;94587.34;;;24.27;64.70
55424;BME280;41294;42.666;23.350;2022-08-20T02:30:37;94568.16;;;24.38;64.63
55424;BME280;41294;42.666;23.350;2022-08-20T02:33:06;94575.41;;;24.51;63.86
55424;BME280;41294;42.666;23.350;2022-08-20T02:35:32;94568.56;;;24.50;64.49
55424;BME280;41294;42.666;23.350;2022-08-20T02:37:58;94564.97;;;24.55;63.89
55424;BME280;41294;42.666;23.350;2022-08-20T02:40:26;94570.72;;;24.51;64.09
55424;BME280;41294;42.666;23.350;2022-08-20T02:42:52;94567.66;;;24.55;64.00
55424;BME280;41294;42.666;23.350;2022-08-20T02:45:18;94569.47;;;24.60;63.80
55424;BME280;41294;42.666;23.350;2022-08-20T02:47:45;94567.84;;;24.57;64.24
55424;BME280;41294;42.666;23.350;2022-08-20T02:50:13;94572.19;;;24.60;64.01
55424;BME280;41294;42.666;23.350;2022-08-20T02:52:40;94573.97;;;24.65;63.78
55424;BME280;41294;42.666;23.350;2022-08-20T02:55:06;94570.00;;;24.58;64.35
55424;BME280;41294;42.666;23.350;2022-08-20T02:57:31;94578.81;;;24.59;64.16
55424;BME280;41294;42.666;23.350;2022-08-20T02:59:57;94571.47;;;24.67;63.91
55424;BME280;41294;42.666;23.350;2022-08-20T03:02:23;94575.03;;;24.54;64.40
55424;BME280;41294;42.666;23.350;2022-08-20T03:04:49;94580.19;;;24.37;64.83
55424;BME280;41294;42.666;23.350;2022-08-20T03:07:14;94580.31;;;24.17;65.75
55424;BME280;41294;42.666;23.350;2022-08-20T03:09:39;94581.00;;;24.10;66.40
55424;BME280;41294;42.666;23.350;2022-08-20T03:12:05;94585.97;;;23.99;67.04
55424;BME280;41294;42.666;23.350;2022-08-20T03:14:33;94581.16;;;23.97;66.94
55424;BME280;41294;42.666;23.350;2022-08-20T03:16:58;94581.25;;;23.77;67.73
55424;BME280;41294;42.666;23.350;2022-08-20T03:19:24;94570.97;;;23.68;68.56
55424;BME280;41294;42.666;23.350;2022-08-20T03:21:50;94574.69;;;23.65;68.83
55424;BME280;41294;42.666;23.350;2022-08-20T03:24:17;94576.47;;;23.62;69.32
55424;BME280;41294;42.666;23.350;2022-08-20T03:26:43;94582.53;;;23.55;69.29
55424;BME280;41294;42.666;23.350;2022-08-20T03:29:09;94580.03;;;23.57;69.63
55424;BME280;41294;42.666;23.350;2022-08-20T03:31:35;94589.13;;;23.47;69.76
55424;BME280;41294;42.666;23.350;2022-08-20T03:34:00;94585.03;;;23.53;69.90
55424;BME280;41294;42.666;23.350;2022-08-20T03:36:27;94587.91;;;23.55;69.91
55424;BME280;41294;42.666;23.350;2022-08-20T03:38:53;94583.53;;;23.45;70.10
55424;BME280;41294;42.666;23.350;2022-08-20T03:41:19;94586.97;;;23.45;69.89
55424;BME280;41294;42.666;23.350;2022-08-20T03:43:44;94585.78;;;23.61;70.13
55424;BME280;41294;42.666;23.350;2022-08-20T03:46:10;94596.53;;;23.61;69.87
55424;BME280;41294;42.666;23.350;2022-08-20T03:48:36;94596.88;;;23.58;69.80
55424;BME280;41294;42.666;23.350;2022-08-20T03:51:01;94596.53;;;23.61;69.64
55424;BME280;41294;42.666;23.350;2022-08-20T03:53:27;94590.78;;;23.57;70.26
55424;BME280;41294;42.666;23.350;2022-08-20T03:56:00;94592.06;;;23.64;69.33
55424;BME280;41294;42.666;23.350;2022-08-20T03:58:30;94598.00;;;23.62;69.58
55424;BME280;41294;42.666;23.350;2022-08-20T04:00:56;94599.91;;;23.82;69.04
55424;BME280;41294;42.666;23.350;2022-08-20T04:03:23;94610.72;;;23.97;68.29
55424;BME280;41294;42.666;23.350;2022-08-20T04:05:49;94600.03;;;24.12;67.47
55424;BME280;41294;42.666;23.350;2022-08-20T04:08:24;94604.59;;;23.89;68.42
55424;BME280;41294;42.666;23.350;2022-08-20T04:10:51;94612.34;;;24.00;67.42
55424;BME280;41294;42.666;23.350;2022-08-20T04:13:19;94604.09;;;23.98;67.77
55424;BME280;41294;42.666;23.350;2022-08-20T04:15:45;94607.09;;;23.87;68.25
55424;BME280;41294;42.666;23.350;2022-08-20T04:18:12;94608.91;;;24.42;66.35
55424;BME280;41294;42.666;23.350;2022-08-20T04:20:40;94615.78;;;24.51;65.86
55424;BME280;41294;42.666;23.350;2022-08-20T04:23:06;94604.50;;;24.60;65.56
55424;BME280;41294;42.666;23.350;2022-08-20T04:25:34;94611.88;;;24.74;64.88
55424;BME280;41294;42.666;23.350;2022-08-20T04:28:01;94609.16;;;24.82;65.34
55424;BME280;41294;42.666;23.350;2022-08-20T04:30:28;94600.22;;;25.24;64.05
55424;BME280;41294;42.666;23.350;2022-08-20T04:32:54;94611.31;;;25.65;63.11
55424;BME280;41294;42.666;23.350;2022-08-20T04:35:21;94615.16;;;26.09;61.49
55424;BME280;41294;42.666;23.350;2022-08-20T04:37:49;94606.75;;;26.37;60.83
55424;BME280;41294;42.666;23.350;2022-08-20T04:40:21;94613.44;;;26.67;60.28
55424;BME280;41294;42.666;23.350;2022-08-20T04:43:05;94609.13;;;26.64;59.10
55424;BME280;41294;42.666;23.350;2022-08-20T04:45:32;94607.09;;;26.72;59.43
55424;BME280;41294;42.666;23.350;2022-08-20T04:48:01;94608.97;;;26.87;58.94
55424;BME280;41294;42.666;23.350;2022-08-20T04:50:30;94614.47;;;26.72;58.71
55424;BME280;41294;42.666;23.350;2022-08-20T04:52:59;94613.19;;;27.29;58.48
55424;BME280;41294;42.666;23.350;2022-08-20T04:55:25;94614.50;;;27.96;57.90
55424;BME280;41294;42.666;23.350;2022-08-20T04:57:50;94615.44;;;28.41;56.67
55424;BME280;41294;42.666;23.350;2022-08-20T05:00:16;94612.13;;;28.60;56.40
55424;BME280;41294;42.666;23.350;2022-08-20T05:02:42;94608.16;;;28.97;55.51
55424;BME280;41294;42.666;23.350;2022-08-20T05:05:09;94613.91;;;29.01;54.61
55424;BME280;41294;42.666;23.350;2022-08-20T05:07:42;94613.81;;;28.82;54.58
55424;BME280;41294;42.666;23.350;2022-08-20T05:10:11;94609.78;;;27.04;58.15
55424;BME280;41294;42.666;23.350;2022-08-20T05:12:36;94614.03;;;27.73;56.83
55424;BME280;41294;42.666;23.350;2022-08-20T05:15:03;94618.97;;;28.18;55.21
55424;BME280;41294;42.666;23.350;2022-08-20T05:17:29;94619.63;;;27.92;56.07
55424;BME280;41294;42.666;23.350;2022-08-20T05:19:55;94617.38;;;27.64;56.88
55424;BME280;41294;42.666;23.350;2022-08-20T05:22:22;94621.47;;;28.49;54.45
55424;BME280;41294;42.666;23.350;2022-08-20T05:24:48;94622.41;;;28.88;53.04
55424;BME280;41294;42.666;23.350;2022-08-20T05:27:17;94612.28;;;28.88;52.75
55424;BME280;41294;42.666;23.350;2022-08-20T05:29:43;94611.56;;;28.88;53.26
55424;BME280;41294;42.666;23.350;2022-08-20T05:32:08;94606.13;;;28.61;54.05
55424;BME280;41294;42.666;23.350;2022-08-20T05:34:34;94599.16;;;27.06;58.34
55424;BME280;41294;42.666;23.350;2022-08-20T05:37:01;94602.19;;;27.27;57.97
55424;BME280;41294;42.666;23.350;2022-08-20T05:39:29;94605.94;;;27.90;56.51
55424;BME280;41294;42.666;23.350;2022-08-20T05:41:54;94606.97;;;28.54;55.02
55424;BME280;41294;42.666;23.350;2022-08-20T05:44:20;94598.84;;;27.77;56.16
55424;BME280;41294;42.666;23.350;2022-08-20T05:46:47;94590.66;;;27.27;58.54
55424;BME280;41294;42.666;23.350;2022-08-20T05:49:18;94586.34;;;27.99;56.49
55424;BME280;41294;42.666;23.350;2022-08-20T05:51:44;94591.28;;;28.89;53.81
55424;BME280;41294;42.666;23.350;2022-08-20T05:54:13;94599.50;;;29.62;52.26
55424;BME280;41294;42.666;23.350;2022-08-20T05:56:39;94600.94;;;30.29;50.13
55424;BME280;41294;42.666;23.350;2022-08-20T05:59:07;94599.22;;;30.53;49.84
55424;BME280;41294;42.666;23.350;2022-08-20T06:01:34;94592.28;;;31.10;49.09
55424;BME280;41294;42.666;23.350;2022-08-20T06:04:01;94591.03;;;31.53;48.06
55424;BME280;41294;42.666;23.350;2022-08-20T06:06:45;94582.78;;;31.21;47.90
55424;BME280;41294;42.666;23.350;2022-08-20T06:09:10;94581.56;;;31.96;45.96
55424;BME280;41294;42.666;23.350;2022-08-20T06:11:36;94586.75;;;30.90;48.42
55424;BME280;41294;42.666;23.350;2022-08-20T06:14:01;94589.28;;;31.06;48.76
55424;BME280;41294;42.666;23.350;2022-08-20T06:16:28;94588.25;;;32.04;46.40
55424;BME280;41294;42.666;23.350;2022-08-20T06:18:53;94590.06;;;32.55;45.44
55424;BME280;41294;42.666;23.350;2022-08-20T06:21:19;94592.03;;;32.64;45.71
55424;BME280;41294;42.666;23.350;2022-08-20T06:23:44;94593.59;;;31.81;45.97
55424;BME280;41294;42.666;23.350;2022-08-20T06:26:10;94593.06;;;31.74;47.04
55424;BME280;41294;42.666;23.350;2022-08-20T06:28:35;94600.94;;;32.76;45.36
55424;BME280;41294;42.666;23.350;2022-08-20T06:31:01;94596.13;;;33.09;44.55
55424;BME280;41294;42.666;23.350;2022-08-20T06:33:27;94605.31;;;33.72;43.73
55424;BME280;41294;42.666;23.350;2022-08-20T06:35:53;94597.91;;;33.86;42.79
55424;BME280;41294;42.666;23.350;2022-08-20T06:38:20;94591.34;;;32.98;44.60
55424;BME280;41294;42.666;23.350;2022-08-20T06:40:45;94587.50;;;33.71;42.79
55424;BME280;41294;42.666;23.350;2022-08-20T06:43:11;94579.81;;;32.88;44.40
55424;BME280;41294;42.666;23.350;2022-08-20T06:45:38;94583.38;;;31.71;46.50
55424;BME280;41294;42.666;23.350;2022-08-20T06:48:09;94588.34;;;30.53;49.05
55424;BME280;41294;42.666;23.350;2022-08-20T06:50:38;94590.47;;;30.94;48.28
55424;BME280;41294;42.666;23.350;2022-08-20T06:53:06;94591.38;;;29.91;51.11
55424;BME280;41294;42.666;23.350;2022-08-20T06:55:32;94582.06;;;31.20;48.72
55424;BME280;41294;42.666;23.350;2022-08-20T06:58:08;94582.69;;;32.35;45.26
55424;BME280;41294;42.666;23.350;2022-08-20T07:00:37;94579.84;;;33.11;43.76
55424;BME280;41294;42.666;23.350;2022-08-20T07:03:03;94575.53;;;33.53;43.37
55424;BME280;41294;42.666;23.350;2022-08-20T07:05:32;94580.66;;;33.36;43.92
55424;BME280;41294;42.666;23.350;2022-08-20T07:07:58;94573.28;;;33.61;43.37
55424;BME280;41294;42.666;23.350;2022-08-20T07:10:27;94567.22;;;34.49;42.87
55424;BME280;41294;42.666;23.350;2022-08-20T07:12:53;94565.78;;;33.98;42.71
55424;BME280;41294;42.666;23.350;2022-08-20T07:15:20;94552.13;;;33.98;42.35
55424;BME280;41294;42.666;23.350;2022-08-20T07:17:51;94562.84;;;31.49;46.99
55424;BME280;41294;42.666;23.350;2022-08-20T07:20:17;94552.06;;;30.99;48.34
55424;BME280;41294;42.666;23.350;2022-08-20T07:22:42;94555.81;;;30.64;48.82
55424;BME280;41294;42.666;23.350;2022-08-20T07:25:10;94557.56;;;30.50;49.50
55424;BME280;41294;42.666;23.350;2022-08-20T07:27:37;94548.28;;;30.84;49.25
55424;BME280;41294;42.666;23.350;2022-08-20T07:30:04;94553.34;;;30.78;48.79
55424;BME280;41294;42.666;23.350;2022-08-20T07:32:49;94549.84;;;30.56;48.80
55424;BME280;41294;42.666;23.350;2022-08-20T07:35:16;94544.06;;;30.12;50.41
55424;BME280;41294;42.666;23.350;2022-08-20T07:37:44;94534.38;;;30.00;50.87
55424;BME280;41294;42.666;23.350;2022-08-20T07:40:16;94544.00;;;30.81;49.66
55424;BME280;41294;42.666;23.350;2022-08-20T07:42:42;94545.75;;;30.76;49.23
55424;BME280;41294;42.666;23.350;2022-08-20T07:45:11;94545.13;;;30.38;49.92
55424;BME280;41294;42.666;23.350;2022-08-20T07:47:41;94539.16;;;30.30;50.64
55424;BME280;41294;42.666;23.350;2022-08-20T07:50:08;94553.19;;;29.89;51.69
55424;BME280;41294;42.666;23.350;2022-08-20T07:52:35;94548.38;;;31.04;49.32
55424;BME280;41294;42.666;23.350;2022-08-20T07:55:02;94547.00;;;30.45;49.86
55424;BME280;41294;42.666;23.350;2022-08-20T07:57:28;94543.56;;;30.44;49.76
55424;BME280;41294;42.666;23.350;2022-08-20T07:59:54;94541.69;;;30.47;49.38
55424;BME280;41294;42.666;23.350;2022-08-20T08:02:22;94538.84;;;30.54;49.33
55424;BME280;41294;42.666;23.350;2022-08-20T08:04:47;94541.41;;;31.22;48.20
55424;BME280;41294;42.666;23.350;2022-08-20T08:07:13;94543.09;;;32.01;46.94
55424;BME280;41294;42.666;23.350;2022-08-20T08:09:38;94540.44;;;33.02;45.46
55424;BME280;41294;42.666;23.350;2022-08-20T08:12:04;94542.63;;;34.24;43.35
55424;BME280;41294;42.666;23.350;2022-08-20T08:14:30;94544.38;;;33.11;44.81
55424;BME280;41294;42.666;23.350;2022-08-20T08:17:00;94544.72;;;32.27;46.18
55424;BME280;41294;42.666;23.350;2022-08-20T08:19:29;94541.69;;;33.47;44.53
55424;BME280;41294;42.666;23.350;2022-08-20T08:22:02;94539.13;;;32.92;44.31
55424;BME280;41294;42.666;23.350;2022-08-20T08:24:28;94536.47;;;33.87;42.71
55424;BME280;41294;42.666;23.350;2022-08-20T08:26:53;94543.56;;;33.56;43.53
55424;BME280;41294;42.666;23.350;2022-08-20T08:29:19;94537.72;;;33.14;44.45
55424;BME280;41294;42.666;23.350;2022-08-20T08:31:44;94541.66;;;33.11;43.95
55424;BME280;41294;42.666;23.350;2022-08-20T08:34:09;94530.88;;;32.23;45.48
55424;BME280;41294;42.666;23.350;2022-08-20T08:36:35;94527.88;;;31.55;46.86
55424;BME280;41294;42.666;23.350;2022-08-20T08:39:04;94536.66;;;31.02;48.45
55424;BME280;41294;42.666;23.350;2022-08-20T08:41:43;94523.56;;;31.52;47.09
55424;BME280;41294;42.666;23.350;2022-08-20T08:44:19;94525.31;;;31.68;46.54
55424;BME280;41294;42.666;23.350;2022-08-20T08:47:06;94513.44;;;31.64;46.30
55424;BME280;41294;42.666;23.350;2022-08-20T08:49:38;94506.63;;;32.50;46.35
55424;BME280;41294;42.666;23.350;2022-08-20T08:52:06;94502.78;;;31.88;46.56
55424;BME280;41294;42.666;23.350;2022-08-20T08:54:34;94513.13;;;33.14;44.86
55424;BME280;41294;42.666;23.350;2022-08-20T08:57:00;94500.81;;;33.13;43.71
55424;BME280;41294;42.666;23.350;2022-08-20T08:59:29;94505.13;;;33.41;43.25
55424;BME280;41294;42.666;23.350;2022-08-20T09:01:58;94504.16;;;32.77;44.10
55424;BME280;41294;42.666;23.350;2022-08-20T09:04:37;94493.81;;;32.53;45.46
55424;BME280;41294;42.666;23.350;2022-08-20T09:07:08;94487.41;;;33.89;42.75
55424;BME280;41294;42.666;23.350;2022-08-20T09:09:37;94483.06;;;35.15;41.05
55424;BME280;41294;42.666;23.350;2022-08-20T09:12:12;94492.50;;;34.71;39.96
55424;BME280;41294;42.666;23.350;2022-08-20T09:14:38;94487.50;;;33.55;41.80
55424;BME280;41294;42.666;23.350;2022-08-20T09:17:04;94480.81;;;34.19;39.85
55424;BME280;41294;42.666;23.350;2022-08-20T09:19:30;94496.66;;;34.72;39.53
55424;BME280;41294;42.666;23.350;2022-08-20T09:21:56;94494.63;;;34.21;40.56
55424;BME280;41294;42.666;23.350;2022-08-20T09:24:22;94488.59;;;33.61;41.30
55424;BME280;41294;42.666;23.350;2022-08-20T09:26:47;94492.88;;;33.89;40.83
55424;BME280;41294;42.666;23.350;2022-08-20T09:29:13;94490.88;;;35.07;39.35
55424;BME280;41294;42.666;23.350;2022-08-20T09:31:38;94483.41;;;34.29;40.58
55424;BME280;41294;42.666;23.350;2022-08-20T09:34:04;94479.47;;;33.46;42.74
55424;BME280;41294;42.666;23.350;2022-08-20T09:36:30;94468.53;;;34.45;41.14
55424;BME280;41294;42.666;23.350;2022-08-20T09:38:55;94470.91;;;35.18;40.83
55424;BME280;41294;42.666;23.350;2022-08-20T09:41:21;94466.75;;;36.01;38.30
55424;BME280;41294;42.666;23.350;2022-08-20T09:43:46;94467.94;;;35.40;39.45
55424;BME280;41294;42.666;23.350;2022-08-20T09:46:12;94465.44;;;33.62;41.54
55424;BME280;41294;42.666;23.350;2022-08-20T09:48:37;94461.44;;;34.40;40.73
55424;BME280;41294;42.666;23.350;2022-08-20T09:51:03;94464.19;;;34.53;40.82
55424;BME280;41294;42.666;23.350;2022-08-20T09:53:29;94458.34;;;34.72;39.45
55424;BME280;41294;42.666;23.350;2022-08-20T09:55:55;94460.66;;;33.63;41.36
55424;BME280;41294;42.666;23.350;2022-08-20T09:58:42;94466.03;;;33.13;42.22
55424;BME280;41294;42.666;23.350;2022-08-20T10:01:12;94447.81;;;34.15;40.72
55424;BME280;41294;42.666;23.350;2022-08-20T10:03:42;94467.50;;;35.04;39.22
55424;BME280;41294;42.666;23.350;2022-08-20T10:06:08;94466.84;;;35.90;37.37
55424;BME280;41294;42.666;23.350;2022-08-20T10:08:35;94461.28;;;35.03;38.67
55424;BME280;41294;42.666;23.350;2022-08-20T10:11:00;94457.09;;;35.71;38.14
55424;BME280;41294;42.666;23.350;2022-08-20T10:13:26;94460.44;;;35.28;38.16
55424;BME280;41294;42.666;23.350;2022-08-20T10:15:51;94467.69;;;33.54;41.47
55424;BME280;41294;42.666;23.350;2022-08-20T10:18:17;94465.31;;;33.60;41.57
55424;BME280;41294;42.666;23.350;2022-08-20T10:20:42;94451.63;;;34.62;40.10
55424;BME280;41294;42.666;23.350;2022-08-20T10:23:07;94454.16;;;35.67;38.46
55424;BME280;41294;42.666;23.350;2022-08-20T10:25:33;94452.81;;;35.39;38.21
55424;BME280;41294;42.666;23.350;2022-08-20T10:27:59;94441.69;;;34.03;40.74
55424;BME280;41294;42.666;23.350;2022-08-20T10:30:25;94452.72;;;33.55;40.97
55424;BME280;41294;42.666;23.350;2022-08-20T10:32:50;94439.41;;;33.61;40.14
55424;BME280;41294;42.666;23.350;2022-08-20T10:35:16;94436.88;;;34.15;39.81
55424;BME280;41294;42.666;23.350;2022-08-20T10:37:42;94436.78;;;33.88;39.59
55424;BME280;41294;42.666;23.350;2022-08-20T10:40:08;94431.22;;;33.86;39.30
55424;BME280;41294;42.666;23.350;2022-08-20T10:42:34;94434.09;;;34.53;38.61
55424;BME280;41294;42.666;23.350;2022-08-20T10:44:59;94434.66;;;34.12;39.88
55424;BME280;41294;42.666;23.350;2022-08-20T10:47:27;94428.78;;;33.43;41.94
55424;BME280;41294;42.666;23.350;2022-08-20T10:49:58;94425.28;;;33.65;41.08
55424;BME280;41294;42.666;23.350;2022-08-20T10:52:24;94420.16;;;33.84;40.89
55424;BME280;41294;42.666;23.350;2022-08-20T10:54:50;94420.22;;;34.63;39.93
55424;BME280;41294;42.666;23.350;2022-08-20T10:57:23;94425.28;;;35.09;38.28
55424;BME280;41294;42.666;23.350;2022-08-20T10:59:50;94420.44;;;35.07;37.84
55424;BME280;41294;42.666;23.350;2022-08-20T11:02:18;94416.69;;;35.43;37.70
55424;BME280;41294;42.666;23.350;2022-08-20T11:04:43;94417.88;;;35.82;37.74
55424;BME280;41294;42.666;23.350;2022-08-20T11:07:20;94416.38;;;35.95;36.90
55424;BME280;41294;42.666;23.350;2022-08-20T11:09:48;94418.53;;;35.67;36.86
55424;BME280;41294;42.666;23.350;2022-08-20T11:12:16;94421.22;;;35.10;37.36
55424;BME280;41294;42.666;23.350;2022-08-20T11:14:42;94420.50;;;35.23;38.16
55424;BME280;41294;42.666;23.350;2022-08-20T11:17:08;94403.13;;;35.31;38.37
55424;BME280;41294;42.666;23.350;2022-08-20T11:19:41;94406.19;;;35.24;37.40
55424;BME280;41294;42.666;23.350;2022-08-20T11:22:07;94398.31;;;35.45;37.68
55424;BME280;41294;42.666;23.350;2022-08-20T11:24:33;94391.28;;;35.56;37.65
55424;BME280;41294;42.666;23.350;2022-08-20T11:26:59;94394.50;;;35.81;37.35
55424;BME280;41294;42.666;23.350;2022-08-20T11:29:25;94388.13;;;35.77;37.16
55424;BME280;41294;42.666;23.350;2022-08-20T11:31:50;94386.78;;;35.62;36.95
55424;BME280;41294;42.666;23.350;2022-08-20T11:34:16;94378.38;;;35.29;37.25
55424;BME280;41294;42.666;23.350;2022-08-20T11:36:43;94365.22;;;35.26;37.94
55424;BME280;41294;42.666;23.350;2022-08-20T11:39:09;94365.22;;;35.26;37.30
55424;BME280;41294;42.666;23.350;2022-08-20T11:41:35;94363.25;;;35.28;37.06
55424;BME280;41294;42.666;23.350;2022-08-20T11:44:00;94357.97;;;35.32;37.11
55424;BME280;41294;42.666;23.350;2022-08-20T11:46:26;94357.97;;;35.32;36.57
55424;BME280;41294;42.666;23.350;2022-08-20T11:48:51;94354.31;;;35.28;36.95
55424;BME280;41294;42.666;23.350;2022-08-20T11:51:17;94361.84;;;35.28;37.50
55424;BME280;41294;42.666;23.350;2022-08-20T11:53:42;94358.84;;;35.22;37.55
55424;BME280;41294;42.666;23.350;2022-08-20T11:56:08;94355.63;;;35.12;37.37
55424;BME280;41294;42.666;23.350;2022-08-20T11:58:33;94362.00;;;35.16;37.04
55424;BME280;41294;42.666;23.350;2022-08-20T12:00:59;94358.84;;;35.22;36.45
55424;BME280;41294;42.666;23.350;2022-08-20T12:03:24;94362.56;;;34.86;35.76
55424;BME280;41294;42.666;23.350;2022-08-20T12:05:50;94367.31;;;34.45;36.62
55424;BME280;41294;42.666;23.350;2022-08-20T12:08:15;94352.38;;;33.56;37.98
55424;BME280;41294;42.666;23.350;2022-08-20T12:10:41;94352.31;;;33.67;37.73
55424;BME280;41294;42.666;23.350;2022-08-20T12:13:07;94351.78;;;33.96;37.40
55424;BME280;41294;42.666;23.350;2022-08-20T12:15:34;94354.22;;;34.03;37.88
55424;BME280;41294;42.666;23.350;2022-08-20T12:18:00;94354.94;;;34.04;37.58
55424;BME280;41294;42.666;23.350;2022-08-20T12:20:29;94359.94;;;34.07;37.58
55424;BME280;41294;42.666;23.350;2022-08-20T12:22:55;94360.19;;;34.00;37.50
55424;BME280;41294;42.666;23.350;2022-08-20T12:25:24;94367.28;;;33.91;37.78
55424;BME280;41294;42.666;23.350;2022-08-20T12:27:50;94366.22;;;33.71;36.85
55424;BME280;41294;42.666;23.350;2022-08-20T12:30:18;94376.03;;;33.76;37.44
55424;BME280;41294;42.666;23.350;2022-08-20T12:32:44;94379.38;;;33.75;41.04
55424;BME280;41294;42.666;23.350;2022-08-20T12:35:11;94385.09;;;33.43;46.04
55424;BME280;41294;42.666;23.350;2022-08-20T12:37:38;94396.09;;;32.72;51.45
55424;BME280;41294;42.666;23.350;2022-08-20T12:40:07;94410.34;;;32.36;53.85
55424;BME280;41294;42.666;23.350;2022-08-20T12:42:33;94411.81;;;31.82;64.26
55424;BME280;41294;42.666;23.350;2022-08-20T12:44:59;94426.38;;;30.80;69.15
55424;BME280;41294;42.666;23.350;2022-08-20T12:47:31;94458.63;;;28.45;77.21
55424;BME280;41294;42.666;23.350;2022-08-20T12:49:59;94455.72;;;27.04;84.68
55424;BME280;41294;42.666;23.350;2022-08-20T12:52:26;94439.44;;;26.70;82.25
55424;BME280;41294;42.666;23.350;2022-08-20T12:54:53;94427.22;;;26.21;80.70